Time;durP1;ratioP1;P1;durP2;ratioP2;P2;SDS_P1;SDS_P2;PMS_P1;PMS_P2;Temp;Humidity;BMP_temperature;BMP_pressure;BME280_temperature;BME280_humidity;BME280_pressure;Samples;Min_cycle;Max_cycle;Signal;HPM_P1;HPM_P2
2023/11/19 00:00:20;;;;;;;2.70;2.60;;;16.50;60.00;;;;;;4987835;28;20454;-78
2023/11/19 00:02:48;;;;;;;3.07;2.83;;;16.50;59.90;;;;;;4990497;28;20504;-78
2023/11/19 00:05:18;;;;;;;3.13;3.03;;;16.50;60.00;;;;;;4992108;28;20453;-78
2023/11/19 00:07:46;;;;;;;2.93;2.83;;;16.50;60.50;;;;;;4987868;28;20485;-78
2023/11/19 00:10:18;;;;;;;2.50;2.40;;;16.50;59.80;;;;;;4990917;28;20449;-78
2023/11/19 00:12:47;;;;;;;3.50;3.30;;;16.50;59.80;;;;;;4993253;28;20532;-78
2023/11/19 00:15:14;;;;;;;3.43;3.23;;;16.50;60.60;;;;;;4984565;28;20948;-78
2023/11/19 00:17:44;;;;;;;3.10;2.90;;;16.60;60.00;;;;;;4995293;28;20479;-78
2023/11/19 00:20:13;;;;;;;3.57;3.37;;;16.60;60.20;;;;;;4998637;28;20449;-78
2023/11/19 00:22:43;;;;;;;3.53;3.33;;;16.60;60.00;;;;;;4998193;28;20429;-79
2023/11/19 00:25:14;;;;;;;3.30;3.10;;;16.60;59.90;;;;;;4992219;28;20508;-78
2023/11/19 00:27:44;;;;;;;4.23;3.20;;;16.60;60.00;;;;;;4987992;28;20468;-78
2023/11/19 00:30:13;;;;;;;3.10;2.90;;;16.60;60.20;;;;;;4986203;28;20452;-78
2023/11/19 00:32:41;;;;;;;3.37;3.17;;;16.60;60.00;;;;;;4985352;28;20454;-79
2023/11/19 00:35:10;;;;;;;3.00;2.80;;;16.60;60.10;;;;;;4987715;28;20460;-79
2023/11/19 00:37:38;;;;;;;3.20;3.00;;;16.70;60.30;;;;;;4991176;28;20487;-79
2023/11/19 00:40:10;;;;;;;4.70;3.70;;;16.70;60.10;;;;;;4993462;28;20478;-80
2023/11/19 00:42:38;;;;;;;3.47;3.27;;;16.70;60.20;;;;;;5002223;28;20450;-79
2023/11/19 00:45:09;;;;;;;3.53;3.33;;;16.70;60.10;;;;;;4999289;28;20442;-79
2023/11/19 00:47:38;;;;;;;3.03;2.83;;;16.70;60.20;;;;;;4998263;28;20508;-79
2023/11/19 00:50:09;;;;;;;3.43;3.23;;;16.80;60.40;;;;;;4997764;28;20473;-79
2023/11/19 00:52:37;;;;;;;3.13;2.90;;;16.80;60.40;;;;;;4995415;28;20527;-79
2023/11/19 00:55:07;;;;;;;3.37;3.17;;;16.80;60.40;;;;;;4995210;28;20446;-79
2023/11/19 00:57:36;;;;;;;3.87;3.57;;;16.80;60.40;;;;;;4996311;28;20465;-78
2023/11/19 01:00:09;;;;;;;3.00;2.80;;;16.80;60.40;;;;;;4988338;28;20452;-80
2023/11/19 01:02:37;;;;;;;3.30;3.10;;;16.80;60.40;;;;;;4999204;28;20475;-78
2023/11/19 01:05:08;;;;;;;3.13;2.93;;;16.80;60.40;;;;;;4997438;28;20481;-79
2023/11/19 01:07:37;;;;;;;3.10;2.90;;;16.80;60.40;;;;;;4993547;28;20465;-78
2023/11/19 01:10:08;;;;;;;3.77;3.50;;;16.80;60.50;;;;;;4993554;28;20462;-79
2023/11/19 01:12:37;;;;;;;3.40;3.20;;;16.90;60.40;;;;;;4986137;28;20488;-79
2023/11/19 01:15:06;;;;;;;3.33;3.13;;;16.80;60.40;;;;;;4989762;28;20449;-80
2023/11/19 01:17:35;;;;;;;4.00;3.60;;;16.90;60.50;;;;;;4998233;28;20469;-80
2023/11/19 01:20:06;;;;;;;3.60;3.40;;;16.90;60.50;;;;;;4987712;28;20445;-78
2023/11/19 01:22:35;;;;;;;3.30;3.10;;;16.90;60.50;;;;;;4987837;28;20448;-78
2023/11/19 01:25:05;;;;;;;3.93;3.73;;;16.90;60.50;;;;;;4996599;28;20449;-78
2023/11/19 01:27:35;;;;;;;3.33;3.13;;;16.90;60.50;;;;;;5000053;28;20461;-77
2023/11/19 01:30:05;;;;;;;3.37;3.17;;;16.90;60.40;;;;;;4998363;28;20469;-78
2023/11/19 01:32:34;;;;;;;2.83;2.73;;;17.00;60.60;;;;;;4997668;28;20453;-77
2023/11/19 01:35:02;;;;;;;3.33;3.03;;;17.00;60.60;;;;;;4995948;28;20452;-78
2023/11/19 01:37:31;;;;;;;2.80;2.70;;;17.00;60.70;;;;;;4999503;28;20472;-78
2023/11/19 01:39:59;;;;;;;2.90;2.77;;;17.00;60.60;;;;;;4995046;28;20437;-78
2023/11/19 01:42:27;;;;;;;2.93;2.73;;;17.00;60.70;;;;;;4995383;28;20453;-78
2023/11/19 01:45:00;;;;;;;3.50;3.20;;;17.00;60.80;;;;;;4995139;28;20441;-77
2023/11/19 01:47:28;;;;;;;4.27;2.97;;;17.00;60.70;;;;;;4996362;28;20535;-77
2023/11/19 01:49:56;;;;;;;2.70;2.50;;;17.00;60.80;;;;;;4990746;28;20474;-77
2023/11/19 01:52:24;;;;;;;3.03;2.83;;;17.10;60.90;;;;;;4987741;28;20457;-77
2023/11/19 01:54:52;;;;;;;3.07;2.87;;;17.10;60.80;;;;;;4993368;28;20477;-77
2023/11/19 01:57:22;;;;;;;3.10;2.90;;;17.10;60.80;;;;;;4993168;28;20469;-77
2023/11/19 01:59:50;;;;;;;3.10;2.90;;;17.10;60.80;;;;;;4987998;28;20445;-77
2023/11/19 02:02:20;;;;;;;3.20;3.00;;;17.10;60.90;;;;;;4985078;28;20441;-78
2023/11/19 02:04:50;;;;;;;2.83;2.73;;;17.10;60.90;;;;;;4986153;28;20453;-77
2023/11/19 02:07:18;;;;;;;3.00;2.80;;;17.10;60.80;;;;;;4991970;28;20475;-77
2023/11/19 02:09:46;;;;;;;3.67;3.47;;;17.10;60.90;;;;;;4990884;28;20473;-77
2023/11/19 02:12:15;;;;;;;2.90;2.70;;;17.20;61.00;;;;;;4991211;28;20453;-77
2023/11/19 02:14:43;;;;;;;2.30;2.20;;;17.20;61.10;;;;;;4994317;28;20532;-76
2023/11/19 02:20:06;;;;;;;3.30;3.00;;;17.20;61.00;;;;;;5121413;27;20573;-76
2023/11/19 02:22:34;;;;;;;3.00;2.80;;;17.20;61.10;;;;;;5129819;27;20447;-76
2023/11/19 02:25:06;;;;;;;4.27;3.20;;;17.20;61.10;;;;;;5120891;28;20454;-76
2023/11/19 02:27:50;;;;;;;2.70;2.60;;;17.20;61.90;;;;;;5123623;28;20464;-77
2023/11/19 02:30:18;;;;;;;2.90;2.70;;;17.30;61.40;;;;;;5098750;28;20498;-77
2023/11/19 02:32:47;;;;;;;2.80;2.60;;;17.30;61.40;;;;;;5100861;28;20479;-78
2023/11/19 02:35:15;;;;;;;3.20;2.90;;;17.30;61.30;;;;;;5112081;28;20456;-78
2023/11/19 02:37:44;;;;;;;2.83;2.60;;;17.30;61.30;;;;;;5113601;28;20490;-77
2023/11/19 02:40:13;;;;;;;2.90;2.70;;;17.30;61.40;;;;;;5103573;28;20447;-77
2023/11/19 02:42:41;;;;;;;2.70;2.60;;;17.30;61.40;;;;;;5110087;28;20460;-77
2023/11/19 02:45:14;;;;;;;2.63;2.53;;;17.40;61.40;;;;;;5109432;28;20435;-77
2023/11/19 02:47:43;;;;;;;2.90;2.73;;;17.40;61.40;;;;;;5117794;27;21014;-77
2023/11/19 02:50:14;;;;;;;3.07;2.83;;;17.40;61.40;;;;;;5106029;28;20441;-77
2023/11/19 02:52:42;;;;;;;2.80;2.70;;;17.40;61.40;;;;;;5116859;28;20443;-76
2023/11/19 02:55:12;;;;;;;3.10;2.90;;;17.40;61.50;;;;;;5109810;28;20428;-77
2023/11/19 02:57:45;;;;;;;3.00;2.80;;;17.40;61.50;;;;;;5116995;27;20470;-77
2023/11/19 03:00:16;;;;;;;2.60;2.50;;;17.40;61.40;;;;;;5116206;28;20544;-77
2023/11/19 03:02:45;;;;;;;3.30;3.10;;;17.50;61.60;;;;;;5115687;28;20497;-77
2023/11/19 03:05:14;;;;;;;3.13;2.93;;;17.50;61.60;;;;;;5097861;28;20939;-78
2023/11/19 03:07:43;;;;;;;3.33;3.03;;;17.50;61.70;;;;;;5102881;28;20510;-78
2023/11/19 03:10:13;;;;;;;3.00;2.80;;;17.50;61.70;;;;;;5114080;28;20529;-77
2023/11/19 03:12:41;;;;;;;3.73;3.03;;;17.50;61.70;;;;;;5108289;28;20448;-78
2023/11/19 03:15:11;;;;;;;3.07;2.87;;;17.50;61.70;;;;;;5107752;28;20439;-78
2023/11/19 03:17:41;;;;;;;2.90;2.80;;;17.50;61.60;;;;;;5107636;28;20471;-78
2023/11/19 03:20:11;;;;;;;2.63;2.43;;;17.50;61.60;;;;;;5108221;28;20475;-78
2023/11/19 03:22:41;;;;;;;2.50;2.40;;;17.60;61.80;;;;;;5108474;28;20444;-77
2023/11/19 03:25:09;;;;;;;3.00;2.80;;;17.60;61.60;;;;;;5107496;28;20505;-77
2023/11/19 03:27:38;;;;;;;2.47;2.37;;;17.60;61.70;;;;;;5108927;28;20477;-77
2023/11/19 03:30:09;;;;;;;2.50;2.37;;;17.60;61.70;;;;;;5121167;28;20496;-77
2023/11/19 03:32:38;;;;;;;2.83;2.53;;;17.60;61.50;;;;;;5095412;28;20440;-77
2023/11/19 03:35:09;;;;;;;2.67;2.57;;;17.60;61.50;;;;;;5095909;28;20540;-77
2023/11/19 03:37:37;;;;;;;2.40;2.30;;;17.60;61.50;;;;;;5100647;28;20464;-77
2023/11/19 03:40:07;;;;;;;3.20;2.27;;;17.60;61.60;;;;;;5094529;28;20549;-78
2023/11/19 03:42:35;;;;;;;2.47;2.27;;;17.60;61.60;;;;;;5094227;28;20456;-77
2023/11/19 03:45:04;;;;;;;2.60;2.40;;;17.70;61.70;;;;;;5093201;28;20444;-77
2023/11/19 03:47:32;;;;;;;2.57;2.37;;;17.70;61.60;;;;;;5095421;28;20461;-77
2023/11/19 03:50:00;;;;;;;2.73;2.53;;;17.70;61.60;;;;;;5092831;28;20445;-77
2023/11/19 03:52:30;;;;;;;2.00;1.90;;;17.70;61.60;;;;;;5095407;28;20415;-77
2023/11/19 03:55:10;;;;;;;2.50;2.40;;;17.70;61.60;;;;;;5095248;28;20444;-77
2023/11/19 03:57:38;;;;;;;2.50;2.40;;;17.70;61.50;;;;;;5095468;28;20543;-78
2023/11/19 04:00:10;;;;;;;2.57;2.47;;;17.70;61.50;;;;;;5095506;28;20476;-78
2023/11/19 04:02:38;;;;;;;3.63;2.20;;;17.70;61.40;;;;;;5110644;28;20464;-78
2023/11/19 04:05:07;;;;;;;2.30;2.20;;;17.80;61.50;;;;;;5113115;28;20532;-78
2023/11/19 04:07:37;;;;;;;2.07;1.83;;;17.80;61.60;;;;;;5107801;28;20468;-77
2023/11/19 04:10:06;;;;;;;2.10;2.00;;;17.80;61.40;;;;;;5110070;28;20448;-77
2023/11/19 04:12:34;;;;;;;2.53;2.30;;;17.80;61.50;;;;;;5114945;28;20437;-78
2023/11/19 04:15:02;;;;;;;2.50;2.30;;;17.80;61.40;;;;;;5115021;28;20445;-78
2023/11/19 04:17:30;;;;;;;2.73;2.53;;;17.80;61.40;;;;;;5098655;28;20465;-77
2023/11/19 04:19:58;;;;;;;4.80;2.20;;;17.80;61.30;;;;;;5093908;28;20468;-78
2023/11/19 04:22:26;;;;;;;2.33;2.17;;;17.80;61.30;;;;;;5094160;28;20441;-78
2023/11/19 04:24:56;;;;;;;2.20;2.10;;;17.80;61.40;;;;;;5091724;28;20540;-77
2023/11/19 04:27:24;;;;;;;2.40;2.30;;;17.90;61.40;;;;;;5085403;28;20468;-77
2023/11/19 04:29:53;;;;;;;2.43;2.13;;;17.90;61.40;;;;;;5093756;28;20437;-77
2023/11/19 04:32:25;;;;;;;2.40;2.20;;;17.90;61.50;;;;;;5095064;28;20521;-77
2023/11/19 04:34:53;;;;;;;2.20;2.10;;;17.90;61.40;;;;;;5097905;28;20532;-77
2023/11/19 04:37:21;;;;;;;3.80;2.20;;;17.90;61.30;;;;;;5093589;28;20461;-77
2023/11/19 04:39:49;;;;;;;3.40;2.67;;;17.90;61.20;;;;;;5093734;28;20483;-77
2023/11/19 04:42:19;;;;;;;4.80;2.67;;;17.90;61.40;;;;;;5090772;28;20467;-77
2023/11/19 04:44:48;;;;;;;2.77;2.57;;;17.90;61.40;;;;;;5092010;28;20499;-77
2023/11/19 04:47:15;;;;;;;3.27;2.47;;;17.90;61.30;;;;;;5094859;28;20460;-78
2023/11/19 04:49:44;;;;;;;2.67;2.57;;;17.90;61.40;;;;;;5094600;28;20537;-78
2023/11/19 04:52:12;;;;;;;2.93;2.33;;;17.90;61.30;;;;;;5093206;28;20476;-78
2023/11/19 04:54:44;;;;;;;2.80;2.43;;;17.90;61.90;;;;;;5092372;28;20472;-77
2023/11/19 04:57:12;;;;;;;2.50;2.30;;;17.90;61.20;;;;;;5092057;28;20464;-77
2023/11/19 04:59:42;;;;;;;4.27;2.53;;;18.00;61.40;;;;;;5092585;28;20472;-77
2023/11/19 05:02:10;;;;;;;2.30;2.10;;;18.00;61.40;;;;;;5088599;28;20480;-78
2023/11/19 05:04:38;;;;;;;3.30;2.37;;;18.00;61.40;;;;;;5094477;28;20550;-77
2023/11/19 05:07:07;;;;;;;2.30;2.10;;;18.00;61.40;;;;;;5105944;28;20532;-77
2023/11/19 05:09:35;;;;;;;2.70;2.30;;;18.00;61.40;;;;;;5100937;28;20445;-78
2023/11/19 05:12:03;;;;;;;5.47;2.33;;;18.00;61.40;;;;;;5084830;28;20441;-78
2023/11/19 05:14:32;;;;;;;3.13;2.60;;;18.00;61.40;;;;;;5093018;28;20497;-77
2023/11/19 05:17:01;;;;;;;5.40;2.67;;;18.10;61.40;;;;;;5092978;28;20453;-78
2023/11/19 05:19:29;;;;;;;2.60;2.13;;;18.00;61.30;;;;;;5086620;28;20460;-77
2023/11/19 05:21:57;;;;;;;2.90;2.30;;;18.00;61.20;;;;;;5087062;28;20451;-77
2023/11/19 05:24:26;;;;;;;3.97;2.53;;;18.10;61.40;;;;;;5092213;28;20452;-77
2023/11/19 05:26:54;;;;;;;2.33;2.13;;;18.00;61.30;;;;;;5091891;28;20452;-77
2023/11/19 05:29:22;;;;;;;3.27;2.63;;;18.10;61.30;;;;;;5091872;28;20441;-78
2023/11/19 05:31:49;;;;;;;2.50;2.37;;;18.10;61.30;;;;;;5092581;28;20453;-78
2023/11/19 05:34:19;;;;;;;4.53;2.30;;;18.10;61.40;;;;;;5091016;28;20494;-78
2023/11/19 05:36:47;;;;;;;2.40;2.20;;;18.10;61.30;;;;;;5091940;28;20560;-78
2023/11/19 05:39:15;;;;;;;4.87;3.23;;;18.10;61.20;;;;;;5087593;28;20468;-78
2023/11/19 05:41:43;;;;;;;4.70;2.20;;;18.10;61.20;;;;;;5092140;28;20538;-77
2023/11/19 05:44:11;;;;;;;2.97;2.53;;;18.20;61.40;;;;;;5092608;28;20453;-76
2023/11/19 05:46:42;;;;;;;3.43;2.33;;;18.20;61.30;;;;;;5093325;28;20460;-77
2023/11/19 05:49:11;;;;;;;2.97;2.57;;;18.20;61.40;;;;;;5092653;28;20452;-77
2023/11/19 05:51:41;;;;;;;3.60;2.63;;;18.20;61.30;;;;;;5092394;28;20444;-77
2023/11/19 05:54:09;;;;;;;4.67;2.50;;;18.20;61.40;;;;;;5091820;28;20445;-77
2023/11/19 05:56:37;;;;;;;4.07;2.67;;;18.20;61.30;;;;;;5085182;28;20461;-78
2023/11/19 05:59:09;;;;;;;3.50;2.37;;;18.20;61.40;;;;;;5087763;28;20474;-77
2023/11/19 06:01:38;;;;;;;5.30;2.17;;;18.20;61.40;;;;;;5083783;28;20460;-77
2023/11/19 06:04:06;;;;;;;3.30;2.60;;;18.20;61.40;;;;;;5091283;28;20459;-77
2023/11/19 06:06:35;;;;;;;5.40;2.73;;;18.20;61.40;;;;;;5083936;28;20517;-75
2023/11/19 06:09:06;;;;;;;5.00;2.50;;;18.20;61.30;;;;;;5091735;28;20492;-77
2023/11/19 06:11:37;;;;;;;4.70;2.63;;;18.20;61.30;;;;;;5092347;28;20440;-77
2023/11/19 06:14:05;;;;;;;3.27;2.20;;;18.20;61.40;;;;;;5091564;28;20469;-77
2023/11/19 06:16:34;;;;;;;5.60;2.80;;;18.20;61.40;;;;;;5078808;28;20477;-77
2023/11/19 06:19:02;;;;;;;5.27;2.57;;;18.20;61.40;;;;;;5089605;28;20534;-78
2023/11/19 06:21:30;;;;;;;5.57;2.63;;;18.30;61.40;;;;;;5091449;28;20469;-77
2023/11/19 06:23:59;;;;;;;5.73;2.47;;;18.20;61.40;;;;;;5091747;28;20449;-77
2023/11/19 06:26:28;;;;;;;5.83;2.53;;;18.20;61.60;;;;;;5090777;28;20445;-77
2023/11/19 06:28:57;;;;;;;6.00;2.67;;;18.20;61.60;;;;;;5091372;28;20499;-76
2023/11/19 06:31:32;;;;;;;6.20;2.90;;;18.30;61.80;;;;;;5090936;28;20490;-77
2023/11/19 06:34:01;;;;;;;8.63;3.00;;;18.20;61.70;;;;;;5089264;28;20470;-78
2023/11/19 06:36:29;;;;;;;5.80;2.90;;;18.20;61.70;;;;;;5084101;28;20451;-79
2023/11/19 06:38:57;;;;;;;10.63;3.20;;;18.20;61.70;;;;;;5094401;28;20448;-78
2023/11/19 06:41:25;;;;;;;8.90;3.53;;;18.20;61.80;;;;;;5092086;28;20464;-79
2023/11/19 06:43:55;;;;;;;5.97;3.67;;;18.30;61.80;;;;;;5092951;28;20449;-77
2023/11/19 06:46:23;;;;;;;9.23;3.43;;;18.30;61.70;;;;;;5091846;28;20437;-77
2023/11/19 06:48:51;;;;;;;9.17;4.20;;;18.30;61.70;;;;;;5091455;28;20455;-78
2023/11/19 06:51:20;;;;;;;13.07;4.20;;;18.30;61.80;;;;;;5091586;28;20444;-78
2023/11/19 06:53:48;;;;;;;6.90;3.47;;;18.30;61.90;;;;;;5083337;28;20522;-77
2023/11/19 06:56:20;;;;;;;8.47;3.30;;;18.30;61.90;;;;;;5091509;28;20462;-77
2023/11/19 06:58:49;;;;;;;9.37;3.80;;;18.30;61.90;;;;;;5084993;28;20467;-78
2023/11/19 07:01:18;;;;;;;8.20;3.63;;;18.30;62.10;;;;;;5083261;28;20473;-78
2023/11/19 07:03:47;;;;;;;7.97;3.93;;;18.20;62.10;;;;;;5084156;28;20449;-78
2023/11/19 07:06:16;;;;;;;9.73;4.23;;;18.30;62.40;;;;;;5100432;28;20449;-78
2023/11/19 07:08:44;;;;;;;11.90;3.77;;;18.30;62.30;;;;;;5095200;28;20484;-78
2023/11/19 07:11:13;;;;;;;9.80;4.50;;;18.30;62.40;;;;;;5095140;28;20854;-77
2023/11/19 07:13:42;;;;;;;10.50;4.10;;;18.30;62.40;;;;;;5088104;28;20531;-78
2023/11/19 07:16:10;;;;;;;10.33;4.23;;;18.20;62.50;;;;;;5097829;28;20433;-78
2023/11/19 07:18:41;;;;;;;10.27;4.10;;;18.30;62.50;;;;;;5092687;28;20546;-78
2023/11/19 07:21:10;;;;;;;11.70;4.23;;;18.30;62.50;;;;;;5094873;28;20563;-78
2023/11/19 07:23:38;;;;;;;9.13;3.60;;;18.30;62.60;;;;;;5095026;28;20472;-78
2023/11/19 07:26:09;;;;;;;9.60;4.20;;;18.30;62.60;;;;;;5095409;28;20861;-78
2023/11/19 07:28:39;;;;;;;10.70;4.63;;;18.30;62.50;;;;;;5095107;28;20468;-78
2023/11/19 07:31:08;;;;;;;8.43;3.80;;;18.30;62.60;;;;;;5089732;28;20527;-79
2023/11/19 07:33:36;;;;;;;9.17;3.60;;;18.30;62.70;;;;;;5095134;28;20453;-78
2023/11/19 07:36:08;;;;;;;12.57;4.57;;;18.30;62.50;;;;;;5094492;28;20440;-78
2023/11/19 07:38:36;;;;;;;13.37;4.13;;;18.40;62.60;;;;;;5088533;28;20493;-79
2023/11/19 07:41:05;;;;;;;8.40;4.10;;;18.40;62.60;;;;;;5094985;28;20461;-78
2023/11/19 07:43:33;;;;;;;10.57;4.20;;;18.40;62.60;;;;;;5094974;28;20440;-79
2023/11/19 07:46:01;;;;;;;9.43;4.03;;;18.40;62.50;;;;;;5095309;28;20513;-78
2023/11/19 07:48:30;;;;;;;10.90;4.20;;;18.50;62.60;;;;;;5094914;28;20467;-77
2023/11/19 07:50:58;;;;;;;18.40;5.40;;;18.50;62.60;;;;;;5095007;28;20475;-78
2023/11/19 07:53:27;;;;;;;7.93;4.10;;;18.50;62.50;;;;;;5094817;28;20449;-78
2023/11/19 07:55:55;;;;;;;10.47;4.57;;;18.50;62.40;;;;;;5090183;28;20456;-77
2023/11/19 07:58:24;;;;;;;15.80;4.40;;;18.50;62.60;;;;;;5095024;28;20471;-77
2023/11/19 08:00:52;;;;;;;12.40;4.60;;;18.50;62.50;;;;;;5094939;28;20445;-78
2023/11/19 08:03:21;;;;;;;11.10;4.30;;;18.60;62.50;;;;;;5094077;28;20456;-78
2023/11/19 08:05:50;;;;;;;13.37;4.27;;;18.60;62.40;;;;;;5095628;28;20452;-78
2023/11/19 08:08:19;;;;;;;9.60;4.33;;;18.60;62.30;;;;;;5094792;28;20467;-78
2023/11/19 08:10:49;;;;;;;10.03;4.37;;;18.70;62.30;;;;;;5094512;28;20445;-78
2023/11/19 08:13:17;;;;;;;10.87;4.23;;;18.70;62.10;;;;;;5093253;28;20992;-79
2023/11/19 08:15:48;;;;;;;15.73;4.37;;;18.70;62.20;;;;;;5092568;28;20456;-78
2023/11/19 08:18:18;;;;;;;12.23;4.07;;;18.70;62.10;;;;;;5094606;28;20468;-78
2023/11/19 08:20:48;;;;;;;15.57;4.83;;;18.80;62.00;;;;;;5078749;28;20447;-78
2023/11/19 08:23:17;;;;;;;16.10;4.90;;;18.80;62.10;;;;;;5091918;28;20490;-78
2023/11/19 08:25:45;;;;;;;13.73;4.33;;;18.80;62.10;;;;;;5085190;28;20491;-78
2023/11/19 08:28:14;;;;;;;16.43;4.40;;;18.80;62.00;;;;;;5094707;28;20498;-78
2023/11/19 08:30:44;;;;;;;14.60;4.60;;;18.90;62.00;;;;;;5094427;28;20456;-78
2023/11/19 08:33:12;;;;;;;10.50;4.43;;;18.90;62.00;;;;;;5094895;28;20504;-78
2023/11/19 08:35:40;;;;;;;13.43;5.13;;;19.00;62.00;;;;;;5094457;28;20440;-78
2023/11/19 08:38:08;;;;;;;11.23;4.23;;;19.00;61.70;;;;;;5095783;28;20461;-78
2023/11/19 08:40:37;;;;;;;18.30;5.43;;;19.00;61.80;;;;;;5093715;28;20540;-78
2023/11/19 08:43:06;;;;;;;10.10;4.13;;;19.00;61.70;;;;;;5095421;28;20469;-80
2023/11/19 08:45:36;;;;;;;13.23;4.33;;;19.00;61.70;;;;;;5098212;28;20498;-79
2023/11/19 08:48:04;;;;;;;13.27;4.70;;;19.10;61.70;;;;;;5097618;28;20994;-78
2023/11/19 08:50:32;;;;;;;13.20;4.37;;;19.10;61.70;;;;;;5096122;28;20433;-79
2023/11/19 08:53:00;;;;;;;22.53;4.77;;;19.10;61.70;;;;;;5094534;28;20508;-79
2023/11/19 08:55:29;;;;;;;12.87;4.53;;;19.10;61.70;;;;;;5094580;28;20497;-78
2023/11/19 08:57:58;;;;;;;14.93;4.70;;;19.10;61.70;;;;;;5091064;28;20514;-78
2023/11/19 09:00:26;;;;;;;10.67;4.30;;;19.20;61.70;;;;;;5093834;28;20435;-79
2023/11/19 09:02:56;;;;;;;14.67;5.07;;;19.20;61.70;;;;;;5094268;28;20473;-79
2023/11/19 09:05:24;;;;;;;11.00;4.83;;;19.20;61.60;;;;;;5091657;28;20464;-78
2023/11/19 09:07:53;;;;;;;14.47;4.20;;;19.20;61.60;;;;;;5093023;28;20499;-78
2023/11/19 09:10:21;;;;;;;18.63;4.87;;;19.20;61.80;;;;;;5094250;28;20441;-78
2023/11/19 09:12:49;;;;;;;12.77;4.17;;;19.20;61.70;;;;;;5095059;28;20433;-78
2023/11/19 09:15:17;;;;;;;15.33;4.20;;;19.20;61.70;;;;;;5095116;28;20436;-79
2023/11/19 09:17:45;;;;;;;11.33;4.50;;;19.30;61.90;;;;;;5097691;28;20472;-79
2023/11/19 09:20:15;;;;;;;13.47;4.57;;;19.30;61.80;;;;;;5093472;28;20486;-78
2023/11/19 09:22:44;;;;;;;13.00;4.70;;;19.40;61.80;;;;;;5089282;28;20518;-76
2023/11/19 09:25:16;;;;;;;17.47;4.43;;;19.40;61.70;;;;;;5093002;28;20445;-78
2023/11/19 09:27:44;;;;;;;13.13;4.63;;;19.50;61.60;;;;;;5091908;28;20464;-78
2023/11/19 09:30:13;;;;;;;10.60;4.30;;;19.60;61.60;;;;;;5092623;28;20429;-77
2023/11/19 09:32:42;;;;;;;15.03;4.40;;;19.60;61.50;;;;;;5091599;28;20439;-78
2023/11/19 09:35:13;;;;;;;11.23;4.30;;;19.60;61.40;;;;;;5091425;28;20441;-77
2023/11/19 09:37:44;;;;;;;10.70;4.43;;;19.70;61.40;;;;;;5090768;28;20435;-78
2023/11/19 09:40:12;;;;;;;18.50;5.27;;;19.70;61.30;;;;;;5085429;28;20573;-77
2023/11/19 09:42:44;;;;;;;13.50;4.70;;;19.70;61.20;;;;;;5088621;28;20472;-78
2023/11/19 09:45:14;;;;;;;15.00;5.00;;;19.60;61.20;;;;;;5091121;28;20967;-78
2023/11/19 09:47:44;;;;;;;14.00;4.30;;;19.60;61.10;;;;;;5090753;28;20465;-78
2023/11/19 09:50:15;;;;;;;13.07;4.47;;;19.60;61.30;;;;;;5094149;28;20452;-79
2023/11/19 09:52:48;;;;;;;17.17;5.17;;;19.50;61.40;;;;;;5097488;28;20437;-77
2023/11/19 09:55:20;;;;;;;34.53;6.67;;;19.40;62.60;;;;;;5089621;28;20457;-78
2023/11/19 09:57:49;;;;;;;34.40;6.50;;;17.20;71.00;;;;;;5090087;28;20468;-78
2023/11/19 10:00:19;;;;;;;29.37;6.00;;;15.90;78.00;;;;;;5095393;28;20502;-77
2023/11/19 10:02:47;;;;;;;39.07;7.30;;;15.20;87.80;;;;;;5095012;28;20481;-78
2023/11/19 10:05:16;;;;;;;31.87;7.43;;;15.00;91.50;;;;;;5092942;28;20480;-77
2023/11/19 10:07:45;;;;;;;40.07;7.53;;;15.10;93.40;;;;;;5094524;28;20486;-76
2023/11/19 10:10:17;;;;;;;40.30;7.37;;;14.90;94.70;;;;;;5093645;28;20433;-76
2023/11/19 10:12:47;;;;;;;43.00;6.70;;;14.90;96.30;;;;;;5094994;28;20437;-76
2023/11/19 10:15:21;;;;;;;34.40;6.40;;;14.80;98.20;;;;;;5096953;28;20460;-80
2023/11/19 10:17:49;;;;;;;35.20;6.40;;;15.50;99.90;;;;;;5096142;28;20503;-78
2023/11/19 10:20:18;;;;;;;37.70;6.30;;;16.30;97.90;;;;;;5096468;28;20437;-80
2023/11/19 10:22:46;;;;;;;37.93;6.33;;;16.90;95.10;;;;;;5085835;28;20471;-80
2023/11/19 10:25:25;;;;;;;27.90;5.23;;;17.40;93.10;;;;;;5094946;28;20452;-80
2023/11/19 10:27:53;;;;;;;29.37;6.07;;;17.70;91.00;;;;;;5093023;28;20472;-79
2023/11/19 10:30:22;;;;;;;34.20;6.20;;;17.90;89.50;;;;;;5091208;28;20448;-78
2023/11/19 10:33:04;;;;;;;31.10;5.57;;;18.10;87.30;;;;;;5093813;28;20441;-79
2023/11/19 10:35:33;;;;;;;25.23;5.60;;;18.30;85.30;;;;;;5095349;28;20532;-81
2023/11/19 10:38:02;;;;;;;31.20;5.93;;;18.40;83.70;;;;;;5098052;28;20471;-79
2023/11/19 10:40:40;;;;;;;32.57;5.30;;;18.50;82.10;;;;;;5097447;28;20449;-78
2023/11/19 10:43:09;;;;;;;23.10;5.63;;;18.70;81.10;;;;;;5093301;28;20477;-78
2023/11/19 10:45:37;;;;;;;22.10;5.00;;;18.70;80.40;;;;;;5097610;28;20460;-78
2023/11/19 10:48:06;;;;;;;30.10;5.50;;;18.90;79.70;;;;;;5092427;28;20472;-77
2023/11/19 10:50:36;;;;;;;31.97;5.63;;;19.00;79.00;;;;;;5087658;28;20455;-77
2023/11/19 10:53:04;;;;;;;31.97;5.90;;;19.20;78.40;;;;;;5097903;28;20471;-78
2023/11/19 10:55:34;;;;;;;19.60;4.70;;;19.30;77.30;;;;;;5096290;28;20440;-78
2023/11/19 10:58:05;;;;;;;28.70;5.87;;;19.50;77.90;;;;;;5088096;28;20464;-77
2023/11/19 11:00:38;;;;;;;24.10;4.67;;;19.80;76.90;;;;;;5094067;28;20501;-78
2023/11/19 11:03:11;;;;;;;23.73;4.90;;;20.00;75.30;;;;;;5098944;28;20465;-79
2023/11/19 11:05:40;;;;;;;25.50;5.50;;;20.10;74.20;;;;;;5093571;28;20448;-77
2023/11/19 11:08:09;;;;;;;24.57;5.23;;;20.10;73.50;;;;;;5087693;28;20498;-78
2023/11/19 11:10:40;;;;;;;17.27;5.00;;;20.00;73.00;;;;;;5095961;28;20444;-77
2023/11/19 11:13:27;;;;;;;25.97;5.43;;;20.10;72.80;;;;;;5094949;28;20528;-77
2023/11/19 11:15:56;;;;;;;17.10;4.60;;;20.10;72.40;;;;;;5087912;28;20519;-79
2023/11/19 11:18:25;;;;;;;21.23;5.30;;;20.10;72.40;;;;;;5089659;28;20477;-77
2023/11/19 11:20:55;;;;;;;22.30;4.50;;;20.10;72.30;;;;;;5095977;28;20452;-79
2023/11/19 11:23:53;;;;;;;21.33;5.33;;;20.20;72.20;;;;;;5099646;28;20468;-79
2023/11/19 11:26:40;;;;;;;22.40;5.50;;;20.30;72.10;;;;;;5083970;28;20444;-78
2023/11/19 11:29:16;;;;;;;22.67;5.10;;;20.30;71.80;;;;;;5088929;28;20445;-77
2023/11/19 11:31:49;;;;;;;19.07;4.37;;;20.30;71.30;;;;;;5096680;28;20447;-78
2023/11/19 11:34:33;;;;;;;15.30;4.17;;;20.20;70.90;;;;;;5089485;28;20892;-76
2023/11/19 11:37:07;;;;;;;15.87;3.97;;;20.20;71.00;;;;;;5094295;28;20444;-80
2023/11/19 11:39:35;;;;;;;25.87;5.23;;;20.10;71.10;;;;;;5092194;28;20447;-76
2023/11/19 11:42:31;;;;;;;18.87;4.53;;;20.10;71.10;;;;;;5089719;28;20480;-77
2023/11/19 11:45:03;;;;;;;21.63;4.80;;;20.10;71.50;;;;;;5089097;28;20476;-77
2023/11/19 11:48:06;;;;;;;16.80;4.43;;;20.00;71.40;;;;;;5095439;28;20522;-78
2023/11/19 11:50:35;;;;;;;16.53;4.63;;;19.90;71.50;;;;;;5086974;28;20436;-76
2023/11/19 11:53:22;;;;;;;19.80;4.30;;;19.90;71.60;;;;;;5094450;28;20884;-76
2023/11/19 11:55:56;;;;;;;20.43;4.70;;;19.90;71.90;;;;;;5093895;28;20447;-74
2023/11/19 11:58:27;;;;;;;17.00;4.20;;;19.90;71.90;;;;;;5088084;28;20472;-75
2023/11/19 12:00:58;;;;;;;19.67;4.80;;;19.90;72.70;;;;;;5087021;28;20457;-78
2023/11/19 12:03:28;;;;;;;14.43;3.80;;;19.90;71.90;;;;;;5092200;28;20995;-75
2023/11/19 12:05:56;;;;;;;14.67;4.23;;;19.90;71.70;;;;;;5093841;28;20445;-78
2023/11/19 12:08:26;;;;;;;21.30;4.80;;;19.90;72.00;;;;;;5087046;28;20499;-76
2023/11/19 12:10:57;;;;;;;13.60;4.10;;;19.80;71.80;;;;;;5094103;28;20411;-76
2023/11/19 12:13:26;;;;;;;14.90;4.03;;;19.80;71.90;;;;;;5094128;28;20529;-77
2023/11/19 12:16:11;;;;;;;13.93;4.00;;;19.80;71.50;;;;;;5093910;28;20479;-77
2023/11/19 12:18:41;;;;;;;19.20;4.57;;;19.80;71.80;;;;;;5093946;28;20484;-77
2023/11/19 12:21:13;;;;;;;19.90;4.13;;;19.80;71.80;;;;;;5084401;28;20443;-77
2023/11/19 12:23:49;;;;;;;22.77;4.60;;;19.80;71.70;;;;;;5102522;28;20443;-77
2023/11/19 12:26:33;;;;;;;17.20;4.30;;;19.80;72.10;;;;;;5085224;28;20448;-76
2023/11/19 12:29:03;;;;;;;16.60;4.27;;;19.70;72.10;;;;;;5090525;28;20449;-75
2023/11/19 12:31:37;;;;;;;15.43;3.83;;;19.70;72.10;;;;;;5089836;28;20444;-77
2023/11/19 12:34:11;;;;;;;13.63;3.53;;;19.70;72.10;;;;;;5095062;28;20793;-76
2023/11/19 12:36:42;;;;;;;12.67;3.70;;;19.70;72.20;;;;;;5089409;28;20445;-77
2023/11/19 12:39:12;;;;;;;15.47;4.03;;;19.70;71.90;;;;;;5093708;28;20452;-79
2023/11/19 12:41:51;;;;;;;18.73;3.90;;;19.70;73.10;;;;;;5094075;28;20445;-77
2023/11/19 12:44:20;;;;;;;17.53;3.93;;;19.60;72.60;;;;;;5088240;28;20518;-79
2023/11/19 12:47:07;;;;;;;20.93;4.37;;;19.50;72.60;;;;;;5099826;28;20466;-78
2023/11/19 12:49:35;;;;;;;12.53;4.37;;;19.30;72.40;;;;;;5104169;28;20445;-79
2023/11/19 12:52:12;;;;;;;18.23;4.40;;;19.30;72.20;;;;;;5089289;28;20453;-79
2023/11/19 12:54:40;;;;;;;10.80;3.80;;;19.20;72.10;;;;;;5089076;28;20445;-78
2023/11/19 12:57:08;;;;;;;11.77;3.50;;;19.40;72.40;;;;;;5092699;28;20851;-78
2023/11/19 12:59:36;;;;;;;11.00;3.50;;;19.70;72.60;;;;;;5086159;28;20476;-79